sensor_id;sensor_type;location;lat;lon;timestamp;P1;durP1;ratioP1;P2;durP2;ratioP2
43319;SDS011;28914;48.722;9.332;2023-09-07T00:03:13;3.10;;;2.80;;
43319;SDS011;28914;48.722;9.332;2023-09-07T00:08:33;3.83;;;3.20;;
43319;SDS011;28914;48.722;9.332;2023-09-07T00:13:52;4.90;;;3.70;;
43319;SDS011;28914;48.722;9.332;2023-09-07T00:19:11;3.70;;;3.40;;
43319;SDS011;28914;48.722;9.332;2023-09-07T00:24:30;4.23;;;3.03;;
43319;SDS011;28914;48.722;9.332;2023-09-07T00:29:52;3.57;;;3.20;;
43319;SDS011;28914;48.722;9.332;2023-09-07T00:35:11;4.57;;;4.17;;
43319;SDS011;28914;48.722;9.332;2023-09-07T00:40:31;4.30;;;3.70;;
43319;SDS011;28914;48.722;9.332;2023-09-07T00:45:50;3.87;;;3.37;;
43319;SDS011;28914;48.722;9.332;2023-09-07T00:51:09;3.77;;;3.27;;
43319;SDS011;28914;48.722;9.332;2023-09-07T00:56:28;3.40;;;3.10;;
43319;SDS011;28914;48.722;9.332;2023-09-07T01:01:47;3.67;;;3.20;;
43319;SDS011;28914;48.722;9.332;2023-09-07T01:07:17;3.67;;;2.93;;
43319;SDS011;28914;48.722;9.332;2023-09-07T01:12:42;4.23;;;3.60;;
43319;SDS011;28914;48.722;9.332;2023-09-07T01:18:01;5.43;;;4.70;;
43319;SDS011;28914;48.722;9.332;2023-09-07T01:23:21;3.40;;;3.10;;
43319;SDS011;28914;48.722;9.332;2023-09-07T01:28:41;3.40;;;3.10;;
43319;SDS011;28914;48.722;9.332;2023-09-07T01:34:00;4.20;;;3.80;;
43319;SDS011;28914;48.722;9.332;2023-09-07T01:39:19;4.37;;;4.07;;
43319;SDS011;28914;48.722;9.332;2023-09-07T01:44:39;3.60;;;3.30;;
43319;SDS011;28914;48.722;9.332;2023-09-07T01:49:58;4.77;;;4.20;;
43319;SDS011;28914;48.722;9.332;2023-09-07T01:55:17;4.17;;;3.77;;
43319;SDS011;28914;48.722;9.332;2023-09-07T02:00:37;4.50;;;3.87;;
43319;SDS011;28914;48.722;9.332;2023-09-07T02:05:59;4.20;;;3.80;;
43319;SDS011;28914;48.722;9.332;2023-09-07T02:11:18;5.60;;;4.00;;
43319;SDS011;28914;48.722;9.332;2023-09-07T02:16:38;4.07;;;3.70;;
43319;SDS011;28914;48.722;9.332;2023-09-07T02:21:57;5.00;;;4.50;;
43319;SDS011;28914;48.722;9.332;2023-09-07T02:27:16;3.90;;;3.60;;
43319;SDS011;28914;48.722;9.332;2023-09-07T02:32:35;3.83;;;3.47;;
43319;SDS011;28914;48.722;9.332;2023-09-07T02:37:54;3.73;;;3.23;;
43319;SDS011;28914;48.722;9.332;2023-09-07T02:43:14;3.70;;;3.40;;
43319;SDS011;28914;48.722;9.332;2023-09-07T02:48:34;4.90;;;4.50;;
43319;SDS011;28914;48.722;9.332;2023-09-07T02:53:54;5.00;;;4.50;;
43319;SDS011;28914;48.722;9.332;2023-09-07T02:59:14;5.70;;;4.90;;
43319;SDS011;28914;48.722;9.332;2023-09-07T03:04:34;3.83;;;3.47;;
43319;SDS011;28914;48.722;9.332;2023-09-07T03:09:53;6.23;;;4.30;;
43319;SDS011;28914;48.722;9.332;2023-09-07T03:15:12;4.47;;;4.07;;
43319;SDS011;28914;48.722;9.332;2023-09-07T03:20:34;4.30;;;3.90;;
43319;SDS011;28914;48.722;9.332;2023-09-07T03:25:53;3.87;;;3.40;;
43319;SDS011;28914;48.722;9.332;2023-09-07T03:31:13;3.83;;;3.43;;
43319;SDS011;28914;48.722;9.332;2023-09-07T03:36:32;4.30;;;3.90;;
43319;SDS011;28914;48.722;9.332;2023-09-07T03:41:51;3.50;;;3.20;;
43319;SDS011;28914;48.722;9.332;2023-09-07T03:47:13;4.20;;;3.80;;
43319;SDS011;28914;48.722;9.332;2023-09-07T03:52:33;4.07;;;3.67;;
43319;SDS011;28914;48.722;9.332;2023-09-07T03:57:52;4.30;;;3.90;;
43319;SDS011;28914;48.722;9.332;2023-09-07T04:03:11;3.73;;;3.30;;
43319;SDS011;28914;48.722;9.332;2023-09-07T04:08:30;4.47;;;4.07;;
43319;SDS011;28914;48.722;9.332;2023-09-07T04:13:49;4.10;;;3.80;;
43319;SDS011;28914;48.722;9.332;2023-09-07T04:19:09;4.30;;;3.90;;
43319;SDS011;28914;48.722;9.332;2023-09-07T04:24:28;4.43;;;3.87;;
43319;SDS011;28914;48.722;9.332;2023-09-07T04:29:47;3.60;;;3.23;;
43319;SDS011;28914;48.722;9.332;2023-09-07T04:35:08;3.50;;;3.20;;
43319;SDS011;28914;48.722;9.332;2023-09-07T04:40:27;4.00;;;3.60;;
43319;SDS011;28914;48.722;9.332;2023-09-07T04:45:47;3.00;;;2.80;;
43319;SDS011;28914;48.722;9.332;2023-09-07T04:51:06;3.40;;;3.10;;
43319;SDS011;28914;48.722;9.332;2023-09-07T04:56:27;4.10;;;3.70;;
43319;SDS011;28914;48.722;9.332;2023-09-07T05:01:47;5.30;;;4.80;;
43319;SDS011;28914;48.722;9.332;2023-09-07T05:07:06;5.77;;;5.27;;
43319;SDS011;28914;48.722;9.332;2023-09-07T05:12:26;6.00;;;5.50;;
43319;SDS011;28914;48.722;9.332;2023-09-07T05:17:45;5.70;;;5.20;;
43319;SDS011;28914;48.722;9.332;2023-09-07T05:23:04;5.10;;;4.70;;
43319;SDS011;28914;48.722;9.332;2023-09-07T05:28:23;6.50;;;5.90;;
43319;SDS011;28914;48.722;9.332;2023-09-07T05:33:42;4.73;;;4.23;;
43319;SDS011;28914;48.722;9.332;2023-09-07T05:39:02;4.20;;;3.80;;
43319;SDS011;28914;48.722;9.332;2023-09-07T05:44:22;5.00;;;4.50;;
43319;SDS011;28914;48.722;9.332;2023-09-07T05:49:42;6.17;;;4.53;;
43319;SDS011;28914;48.722;9.332;2023-09-07T05:55:01;8.10;;;4.80;;
43319;SDS011;28914;48.722;9.332;2023-09-07T06:00:21;5.90;;;4.90;;
43319;SDS011;28914;48.722;9.332;2023-09-07T06:05:40;7.10;;;5.67;;
43319;SDS011;28914;48.722;9.332;2023-09-07T06:10:59;8.10;;;7.40;;
43319;SDS011;28914;48.722;9.332;2023-09-07T06:16:19;7.17;;;6.57;;
43319;SDS011;28914;48.722;9.332;2023-09-07T06:21:38;6.77;;;6.17;;
43319;SDS011;28914;48.722;9.332;2023-09-07T06:26:57;6.40;;;4.83;;
43319;SDS011;28914;48.722;9.332;2023-09-07T06:32:16;7.57;;;5.43;;
43319;SDS011;28914;48.722;9.332;2023-09-07T06:37:37;6.47;;;5.87;;
43319;SDS011;28914;48.722;9.332;2023-09-07T06:42:59;6.97;;;6.27;;
43319;SDS011;28914;48.722;9.332;2023-09-07T06:48:19;5.70;;;5.20;;
43319;SDS011;28914;48.722;9.332;2023-09-07T06:53:38;5.10;;;4.60;;
43319;SDS011;28914;48.722;9.332;2023-09-07T06:58:57;5.90;;;5.30;;
43319;SDS011;28914;48.722;9.332;2023-09-07T07:04:16;6.60;;;6.10;;
43319;SDS011;28914;48.722;9.332;2023-09-07T07:09:36;5.50;;;5.00;;
43319;SDS011;28914;48.722;9.332;2023-09-07T07:14:55;5.73;;;5.23;;
43319;SDS011;28914;48.722;9.332;2023-09-07T07:20:15;6.43;;;5.83;;
43319;SDS011;28914;48.722;9.332;2023-09-07T07:25:34;4.40;;;4.10;;
43319;SDS011;28914;48.722;9.332;2023-09-07T07:30:53;4.37;;;3.97;;
43319;SDS011;28914;48.722;9.332;2023-09-07T07:36:12;7.00;;;4.33;;
43319;SDS011;28914;48.722;9.332;2023-09-07T07:41:32;5.27;;;4.77;;
43319;SDS011;28914;48.722;9.332;2023-09-07T07:46:51;6.17;;;5.50;;
43319;SDS011;28914;48.722;9.332;2023-09-07T07:52:10;5.50;;;4.03;;
43319;SDS011;28914;48.722;9.332;2023-09-07T07:57:29;4.70;;;4.30;;
43319;SDS011;28914;48.722;9.332;2023-09-07T08:02:50;4.53;;;3.87;;
43319;SDS011;28914;48.722;9.332;2023-09-07T08:08:10;4.60;;;4.20;;
43319;SDS011;28914;48.722;9.332;2023-09-07T08:13:30;5.80;;;4.50;;
43319;SDS011;28914;48.722;9.332;2023-09-07T08:18:49;4.37;;;4.07;;
43319;SDS011;28914;48.722;9.332;2023-09-07T08:24:08;4.15;;;3.78;;
43319;SDS011;28914;48.722;9.332;2023-09-07T08:29:27;4.30;;;3.90;;
43319;SDS011;28914;48.722;9.332;2023-09-07T08:34:46;5.57;;;5.07;;
43319;SDS011;28914;48.722;9.332;2023-09-07T08:40:06;4.55;;;3.55;;
43319;SDS011;28914;48.722;9.332;2023-09-07T08:45:26;3.63;;;3.42;;
43319;SDS011;28914;48.722;9.332;2023-09-07T08:50:48;3.63;;;3.42;;
43319;SDS011;28914;48.722;9.332;2023-09-07T08:56:09;4.32;;;3.92;;
43319;SDS011;28914;48.722;9.332;2023-09-07T09:01:29;3.53;;;3.22;;
43319;SDS011;28914;48.722;9.332;2023-09-07T09:06:50;4.35;;;3.95;;
43319;SDS011;28914;48.722;9.332;2023-09-07T09:12:11;3.00;;;2.80;;
43319;SDS011;28914;48.722;9.332;2023-09-07T09:17:31;3.22;;;2.92;;
43319;SDS011;28914;48.722;9.332;2023-09-07T09:22:51;4.22;;;3.72;;
43319;SDS011;28914;48.722;9.332;2023-09-07T09:28:11;3.17;;;2.92;;
43319;SDS011;28914;48.722;9.332;2023-09-07T09:33:31;3.78;;;3.40;;
43319;SDS011;28914;48.722;9.332;2023-09-07T09:38:51;3.65;;;3.35;;
43319;SDS011;28914;48.722;9.332;2023-09-07T09:44:12;3.28;;;3.08;;
43319;SDS011;28914;48.722;9.332;2023-09-07T09:49:31;3.45;;;3.08;;
43319;SDS011;28914;48.722;9.332;2023-09-07T09:54:51;3.05;;;2.85;;
43319;SDS011;28914;48.722;9.332;2023-09-07T10:00:11;4.00;;;3.70;;
43319;SDS011;28914;48.722;9.332;2023-09-07T10:05:44;3.40;;;3.10;;
43319;SDS011;28914;48.722;9.332;2023-09-07T10:11:08;3.95;;;3.65;;
43319;SDS011;28914;48.722;9.332;2023-09-07T10:22:09;2.92;;;2.72;;
43319;SDS011;28914;48.722;9.332;2023-09-07T10:27:41;3.53;;;3.30;;
43319;SDS011;28914;48.722;9.332;2023-09-07T10:33:00;3.58;;;3.25;;
43319;SDS011;28914;48.722;9.332;2023-09-07T10:38:19;4.18;;;3.50;;
43319;SDS011;28914;48.722;9.332;2023-09-07T10:43:46;2.72;;;2.53;;
43319;SDS011;28914;48.722;9.332;2023-09-07T10:49:11;3.60;;;3.30;;
43319;SDS011;28914;48.722;9.332;2023-09-07T10:54:31;3.60;;;3.30;;
43319;SDS011;28914;48.722;9.332;2023-09-07T10:59:50;3.10;;;2.90;;
43319;SDS011;28914;48.722;9.332;2023-09-07T11:05:13;3.80;;;3.13;;
43319;SDS011;28914;48.722;9.332;2023-09-07T11:10:34;3.40;;;3.20;;
43319;SDS011;28914;48.722;9.332;2023-09-07T11:15:55;3.63;;;3.30;;
43319;SDS011;28914;48.722;9.332;2023-09-07T11:21:16;3.50;;;3.20;;
43319;SDS011;28914;48.722;9.332;2023-09-07T11:26:42;2.85;;;2.65;;
43319;SDS011;28914;48.722;9.332;2023-09-07T11:32:08;3.00;;;2.80;;
43319;SDS011;28914;48.722;9.332;2023-09-07T11:37:28;3.28;;;3.00;;
43319;SDS011;28914;48.722;9.332;2023-09-07T11:42:47;2.67;;;2.47;;
43319;SDS011;28914;48.722;9.332;2023-09-07T11:48:07;2.80;;;2.60;;
43319;SDS011;28914;48.722;9.332;2023-09-07T11:53:29;3.72;;;3.42;;
43319;SDS011;28914;48.722;9.332;2023-09-07T11:58:48;5.25;;;2.90;;
43319;SDS011;28914;48.722;9.332;2023-09-07T12:04:07;3.25;;;2.97;;
43319;SDS011;28914;48.722;9.332;2023-09-07T12:09:27;4.30;;;4.00;;
43319;SDS011;28914;48.722;9.332;2023-09-07T12:14:46;4.07;;;3.75;;
43319;SDS011;28914;48.722;9.332;2023-09-07T12:20:06;3.78;;;3.47;;
43319;SDS011;28914;48.722;9.332;2023-09-07T12:25:28;3.80;;;3.50;;
43319;SDS011;28914;48.722;9.332;2023-09-07T12:30:48;5.70;;;4.13;;
43319;SDS011;28914;48.722;9.332;2023-09-07T12:36:07;4.20;;;3.90;;
43319;SDS011;28914;48.722;9.332;2023-09-07T12:41:29;4.87;;;4.37;;
43319;SDS011;28914;48.722;9.332;2023-09-07T12:46:49;4.03;;;3.63;;
43319;SDS011;28914;48.722;9.332;2023-09-07T12:52:08;4.13;;;3.83;;
43319;SDS011;28914;48.722;9.332;2023-09-07T12:57:29;3.07;;;2.77;;
43319;SDS011;28914;48.722;9.332;2023-09-07T13:02:48;3.83;;;3.53;;
43319;SDS011;28914;48.722;9.332;2023-09-07T13:08:08;4.13;;;3.83;;
43319;SDS011;28914;48.722;9.332;2023-09-07T13:13:27;3.47;;;3.00;;
43319;SDS011;28914;48.722;9.332;2023-09-07T13:18:47;4.33;;;3.90;;
43319;SDS011;28914;48.722;9.332;2023-09-07T13:24:07;3.33;;;3.03;;
43319;SDS011;28914;48.722;9.332;2023-09-07T13:29:26;3.73;;;3.43;;
43319;SDS011;28914;48.722;9.332;2023-09-07T13:34:45;3.13;;;2.93;;
43319;SDS011;28914;48.722;9.332;2023-09-07T13:40:05;3.93;;;3.20;;
43319;SDS011;28914;48.722;9.332;2023-09-07T13:45:25;3.70;;;3.40;;
43319;SDS011;28914;48.722;9.332;2023-09-07T13:50:45;3.90;;;3.60;;
43319;SDS011;28914;48.722;9.332;2023-09-07T13:56:04;3.90;;;3.60;;
43319;SDS011;28914;48.722;9.332;2023-09-07T14:01:23;3.43;;;3.20;;
43319;SDS011;28914;48.722;9.332;2023-09-07T14:06:43;5.07;;;3.40;;
43319;SDS011;28914;48.722;9.332;2023-09-07T14:12:02;4.13;;;3.83;;
43319;SDS011;28914;48.722;9.332;2023-09-07T14:17:22;3.63;;;3.33;;
43319;SDS011;28914;48.722;9.332;2023-09-07T14:22:41;3.23;;;3.00;;
43319;SDS011;28914;48.722;9.332;2023-09-07T14:28:01;3.90;;;3.60;;
43319;SDS011;28914;48.722;9.332;2023-09-07T14:33:20;3.13;;;2.93;;
43319;SDS011;28914;48.722;9.332;2023-09-07T14:38:39;3.47;;;3.27;;
43319;SDS011;28914;48.722;9.332;2023-09-07T14:44:00;3.27;;;2.97;;
43319;SDS011;28914;48.722;9.332;2023-09-07T14:49:19;3.73;;;3.43;;
43319;SDS011;28914;48.722;9.332;2023-09-07T14:54:42;3.77;;;3.50;;
43319;SDS011;28914;48.722;9.332;2023-09-07T15:00:02;4.10;;;3.80;;
43319;SDS011;28914;48.722;9.332;2023-09-07T15:05:21;3.80;;;3.50;;
43319;SDS011;28914;48.722;9.332;2023-09-07T15:10:41;3.80;;;3.50;;
43319;SDS011;28914;48.722;9.332;2023-09-07T15:16:00;3.50;;;3.20;;
43319;SDS011;28914;48.722;9.332;2023-09-07T15:21:19;3.90;;;3.50;;
43319;SDS011;28914;48.722;9.332;2023-09-07T15:26:39;3.30;;;3.10;;
43319;SDS011;28914;48.722;9.332;2023-09-07T15:32:00;3.77;;;2.93;;
43319;SDS011;28914;48.722;9.332;2023-09-07T15:37:20;4.27;;;3.87;;
43319;SDS011;28914;48.722;9.332;2023-09-07T15:42:39;3.67;;;3.30;;
43319;SDS011;28914;48.722;9.332;2023-09-07T15:47:59;3.50;;;3.13;;
43319;SDS011;28914;48.722;9.332;2023-09-07T15:53:21;4.53;;;3.30;;
43319;SDS011;28914;48.722;9.332;2023-09-07T15:58:40;3.67;;;3.37;;
43319;SDS011;28914;48.722;9.332;2023-09-07T16:03:59;3.60;;;3.30;;
43319;SDS011;28914;48.722;9.332;2023-09-07T16:09:18;4.40;;;4.00;;
43319;SDS011;28914;48.722;9.332;2023-09-07T16:14:37;3.30;;;3.00;;
43319;SDS011;28914;48.722;9.332;2023-09-07T16:19:57;4.93;;;3.00;;
43319;SDS011;28914;48.722;9.332;2023-09-07T16:25:16;3.63;;;3.33;;
43319;SDS011;28914;48.722;9.332;2023-09-07T16:30:35;3.50;;;3.20;;
43319;SDS011;28914;48.722;9.332;2023-09-07T16:35:54;3.33;;;3.10;;
43319;SDS011;28914;48.722;9.332;2023-09-07T16:41:13;4.20;;;3.83;;
43319;SDS011;28914;48.722;9.332;2023-09-07T16:46:33;5.17;;;4.67;;
43319;SDS011;28914;48.722;9.332;2023-09-07T16:51:52;4.20;;;3.83;;
43319;SDS011;28914;48.722;9.332;2023-09-07T16:57:11;3.83;;;3.53;;
43319;SDS011;28914;48.722;9.332;2023-09-07T17:02:30;3.80;;;3.37;;
43319;SDS011;28914;48.722;9.332;2023-09-07T17:07:49;6.10;;;3.20;;
43319;SDS011;28914;48.722;9.332;2023-09-07T17:13:09;3.30;;;3.00;;
43319;SDS011;28914;48.722;9.332;2023-09-07T17:18:28;4.80;;;3.30;;
43319;SDS011;28914;48.722;9.332;2023-09-07T17:23:47;4.13;;;3.73;;
43319;SDS011;28914;48.722;9.332;2023-09-07T17:29:08;4.10;;;3.07;;
43319;SDS011;28914;48.722;9.332;2023-09-07T17:34:27;5.93;;;3.40;;
43319;SDS011;28914;48.722;9.332;2023-09-07T17:39:46;3.93;;;3.53;;
43319;SDS011;28914;48.722;9.332;2023-09-07T17:45:05;4.20;;;3.90;;
43319;SDS011;28914;48.722;9.332;2023-09-07T17:50:25;5.67;;;3.67;;
43319;SDS011;28914;48.722;9.332;2023-09-07T17:55:44;3.93;;;3.13;;
43319;SDS011;28914;48.722;9.332;2023-09-07T18:01:04;3.30;;;3.00;;
43319;SDS011;28914;48.722;9.332;2023-09-07T18:06:27;3.20;;;3.00;;
43319;SDS011;28914;48.722;9.332;2023-09-07T18:11:46;4.03;;;3.73;;
43319;SDS011;28914;48.722;9.332;2023-09-07T18:17:06;4.23;;;3.83;;
43319;SDS011;28914;48.722;9.332;2023-09-07T18:22:25;6.37;;;4.07;;
43319;SDS011;28914;48.722;9.332;2023-09-07T18:27:44;4.97;;;4.47;;
43319;SDS011;28914;48.722;9.332;2023-09-07T18:33:03;6.03;;;3.90;;
43319;SDS011;28914;48.722;9.332;2023-09-07T18:38:23;3.93;;;3.60;;
43319;SDS011;28914;48.722;9.332;2023-09-07T18:43:42;5.77;;;4.60;;
43319;SDS011;28914;48.722;9.332;2023-09-07T18:49:01;4.50;;;4.10;;
43319;SDS011;28914;48.722;9.332;2023-09-07T18:54:21;4.30;;;3.90;;
43319;SDS011;28914;48.722;9.332;2023-09-07T18:59:41;6.87;;;5.20;;
43319;SDS011;28914;48.722;9.332;2023-09-07T19:05:00;5.37;;;4.87;;
43319;SDS011;28914;48.722;9.332;2023-09-07T19:10:19;5.80;;;5.30;;
43319;SDS011;28914;48.722;9.332;2023-09-07T19:15:39;6.00;;;5.40;;
43319;SDS011;28914;48.722;9.332;2023-09-07T19:20:58;5.40;;;4.77;;
43319;SDS011;28914;48.722;9.332;2023-09-07T19:31:50;5.80;;;5.30;;
43319;SDS011;28914;48.722;9.332;2023-09-07T19:37:09;11.60;;;5.53;;
43319;SDS011;28914;48.722;9.332;2023-09-07T19:42:28;5.10;;;4.70;;
43319;SDS011;28914;48.722;9.332;2023-09-07T19:47:48;5.27;;;4.77;;
43319;SDS011;28914;48.722;9.332;2023-09-07T19:53:07;4.63;;;4.23;;
43319;SDS011;28914;48.722;9.332;2023-09-07T19:58:26;5.90;;;5.40;;
43319;SDS011;28914;48.722;9.332;2023-09-07T20:03:46;5.47;;;5.07;;
43319;SDS011;28914;48.722;9.332;2023-09-07T20:09:07;5.40;;;4.90;;
43319;SDS011;28914;48.722;9.332;2023-09-07T20:14:26;6.70;;;5.03;;
43319;SDS011;28914;48.722;9.332;2023-09-07T20:19:45;5.23;;;4.83;;
43319;SDS011;28914;48.722;9.332;2023-09-07T20:25:04;6.07;;;5.50;;
43319;SDS011;28914;48.722;9.332;2023-09-07T20:30:24;5.70;;;5.20;;
43319;SDS011;28914;48.722;9.332;2023-09-07T20:35:43;4.70;;;4.30;;
43319;SDS011;28914;48.722;9.332;2023-09-07T20:41:03;4.17;;;3.63;;
43319;SDS011;28914;48.722;9.332;2023-09-07T20:46:22;4.43;;;4.00;;
43319;SDS011;28914;48.722;9.332;2023-09-07T20:51:42;5.63;;;4.20;;
43319;SDS011;28914;48.722;9.332;2023-09-07T20:57:01;4.80;;;4.40;;
43319;SDS011;28914;48.722;9.332;2023-09-07T21:02:20;4.00;;;3.70;;
43319;SDS011;28914;48.722;9.332;2023-09-07T21:07:39;7.90;;;4.20;;
43319;SDS011;28914;48.722;9.332;2023-09-07T21:12:58;4.90;;;4.50;;
43319;SDS011;28914;48.722;9.332;2023-09-07T21:18:18;4.60;;;4.20;;
43319;SDS011;28914;48.722;9.332;2023-09-07T21:23:37;4.37;;;3.97;;
43319;SDS011;28914;48.722;9.332;2023-09-07T21:28:56;4.83;;;4.13;;
43319;SDS011;28914;48.722;9.332;2023-09-07T21:34:16;4.70;;;4.30;;
43319;SDS011;28914;48.722;9.332;2023-09-07T21:39:35;4.47;;;4.03;;
43319;SDS011;28914;48.722;9.332;2023-09-07T21:44:54;4.43;;;4.00;;
43319;SDS011;28914;48.722;9.332;2023-09-07T21:50:16;4.33;;;3.97;;
43319;SDS011;28914;48.722;9.332;2023-09-07T21:55:35;4.63;;;3.77;;
43319;SDS011;28914;48.722;9.332;2023-09-07T22:00:55;4.23;;;3.93;;
43319;SDS011;28914;48.722;9.332;2023-09-07T22:06:14;4.67;;;4.00;;
43319;SDS011;28914;48.722;9.332;2023-09-07T22:11:33;5.27;;;4.77;;
43319;SDS011;28914;48.722;9.332;2023-09-07T22:16:52;4.80;;;4.40;;
43319;SDS011;28914;48.722;9.332;2023-09-07T22:22:13;4.77;;;4.37;;
43319;SDS011;28914;48.722;9.332;2023-09-07T22:27:32;5.90;;;5.00;;
43319;SDS011;28914;48.722;9.332;2023-09-07T22:32:52;6.00;;;5.50;;
43319;SDS011;28914;48.722;9.332;2023-09-07T22:38:11;4.90;;;4.40;;
43319;SDS011;28914;48.722;9.332;2023-09-07T22:43:30;5.37;;;4.80;;
43319;SDS011;28914;48.722;9.332;2023-09-07T22:48:49;4.80;;;4.40;;
43319;SDS011;28914;48.722;9.332;2023-09-07T22:54:09;4.90;;;4.40;;
43319;SDS011;28914;48.722;9.332;2023-09-07T22:59:28;5.83;;;5.13;;
43319;SDS011;28914;48.722;9.332;2023-09-07T23:04:47;6.17;;;5.67;;
43319;SDS011;28914;48.722;9.332;2023-09-07T23:10:07;6.27;;;5.37;;
43319;SDS011;28914;48.722;9.332;2023-09-07T23:15:28;6.17;;;5.67;;
43319;SDS011;28914;48.722;9.332;2023-09-07T23:20:49;5.97;;;5.47;;
43319;SDS011;28914;48.722;9.332;2023-09-07T23:26:08;5.07;;;4.67;;
43319;SDS011;28914;48.722;9.332;2023-09-07T23:31:28;5.10;;;4.60;;
43319;SDS011;28914;48.722;9.332;2023-09-07T23:36:47;6.03;;;4.97;;
43319;SDS011;28914;48.722;9.332;2023-09-07T23:42:07;6.03;;;5.50;;
43319;SDS011;28914;48.722;9.332;2023-09-07T23:47:27;5.53;;;4.63;;
43319;SDS011;28914;48.722;9.332;2023-09-07T23:52:46;5.70;;;5.20;;
43319;SDS011;28914;48.722;9.332;2023-09-07T23:58:06;5.90;;;5.13;;
